RJKN(METAR)
06/24 18:00
RJKN 240900Z 07007KT 9999 FEW009 SCT020 BKN030 23/22 Q1009 RMK
A2982=
戻る
トップページへ戻る
IMOC Co,.Ltd.